TFM - Tactical Decision Aid
ID: Runway Winds: CIG/VIS Threshold:

KMSN - Madison/Dane Cnty Rg, WI, US

Updated at: 0324 UTC 30 Jun 2022
Latest TAF at: 0308 UTC 30 Jun 2022

TAF Board

Time0253Z 30/04Z 30/05Z 30/06Z 30/07Z 30/08Z 30/09Z 30/10Z 30/11Z 30/12Z 30/13Z 30/14Z 30/15Z 30/16Z>>
Type OBS PRVL PRVL PRVL PRVL PRVL PRVL PRVL PRVL PRVL PRVL PRVL PRVL PRVL
VIS 10 >6 >6 >6 >6 >6 >6 >6 >6 >6 >6 >6 >6 >6
CIG -- -- -- -- -- -- -- -- -- -- -- -- -- --
Cover CLR SKC SKC SKC SKC FEW FEW FEW FEW FEW FEW FEW FEW FEW
FltCat VFR VFR VFR VFR VFR VFR VFR VFR VFR VFR VFR VFR VFR VFR
WX -- -- -- -- -- -- -- -- -- -- -- -- -- --
WDir 160 170 170 170 170 200 200 200 200 200 200 200 200 200
WSpd 8 9 9 9 9 9 9 9 9 12 12 12 12 12
WGst -- -- -- -- -- -- -- -- -- 24 24 24 24 24
WSHgt -- -- -- -- -- 2000 2000 2000 2000 -- -- -- -- --
WSDir -- -- -- -- -- 230 230 230 230 -- -- -- -- --
WSSpd -- -- -- -- -- 40 40 40 40 -- -- -- -- --
R03/21
XWnd -6 -6 -6 -6 -6 -1 -1 -1 -1 -2 -2 -2 -2 -2
XGst -- -- -- -- -- -- -- -- -- -4 -4 -4 -4 -4
HWnd -5 -7 -7 -7 -7 -9 -9 -9 -9 -12 -12 -12 -12 -12
HGst -- -- -- -- -- -- -- -- -- -24 -24 -24 -24 -24
R14/32
XWnd -3 -5 -5 -5 -5 -8 -8 -8 -8 -11 -11 -11 -11 -11
XGst -- -- -- -- -- -- -- -- -- -22 -22 -22 -22 -22
HWnd 7 7 7 7 7 4 4 4 4 5 5 5 5 5
HGst -- -- -- -- -- -- -- -- -- 11 11 11 11 11
R18/36
XWnd 3 2 2 2 2 -3 -3 -3 -3 -4 -4 -4 -4 -4
XGst -- -- -- -- -- -- -- -- -- -7 -7 -7 -7 -7
HWnd 7 9 9 9 9 9 9 9 9 11 11 11 11 11
HGst -- -- -- -- -- -- -- -- -- 23 23 23 23 23

TDA Impact Legend

  None Marginal Slight Moderate High
Visibility (sm) >5 2.9≤X≤5 0.9≤X<2.9 <0.9
Ceiling (100 ft) >30 9.9≤X≤30 4.9≤X<9.9 <4.9
Wind Speed (kt) <15 15≤X<25 25≤X<30 ≥30
Wind Gust (kt) <15 15≤X<25 25≤X<35 ≥35
Weather No Wx Reported VCTS -TS,-FZRA TS,FZRA +TS,+FZRA
TAF
KMSN 300308Z 3003/3024 17009KT P6SM SKC
  FM300800 20009KT P6SM FEW240 WS020/23040KT
  FM301200 20012G24KT P6SM FEW250


METAR
KMSN 300253Z 16008KT 10SM CLR 26/16 A3007 RMK AO2 SLP176 T02610156 56003
KMSN 300153Z 18006KT 10SM FEW250 27/15 A3007 RMK AO2 SLP176 T02670150
KMSN 300053Z 18006KT 10SM FEW250 28/14 A3007 RMK AO2 SLP176 T02830139

Radar Display
Forecast Discussion